sensor_id;sensor_type;location;lat;lon;timestamp;temperature;humidity
9980;DHT22;5030;51.532;6.766;2023-05-18T00:01:47;5.60;99.90
9980;DHT22;5030;51.532;6.766;2023-05-18T00:04:12;5.60;99.90
9980;DHT22;5030;51.532;6.766;2023-05-18T00:06:38;5.80;99.90
9980;DHT22;5030;51.532;6.766;2023-05-18T00:09:04;5.60;99.90
9980;DHT22;5030;51.532;6.766;2023-05-18T00:11:29;5.60;99.90
9980;DHT22;5030;51.532;6.766;2023-05-18T00:13:55;5.60;99.90
9980;DHT22;5030;51.532;6.766;2023-05-18T00:16:21;5.60;99.90
9980;DHT22;5030;51.532;6.766;2023-05-18T00:18:46;5.60;99.90
9980;DHT22;5030;51.532;6.766;2023-05-18T00:21:12;5.50;99.90
9980;DHT22;5030;51.532;6.766;2023-05-18T00:23:40;5.60;99.90
9980;DHT22;5030;51.532;6.766;2023-05-18T00:26:07;5.60;99.90
9980;DHT22;5030;51.532;6.766;2023-05-18T00:28:32;5.50;99.90
9980;DHT22;5030;51.532;6.766;2023-05-18T00:30:58;5.50;99.90
9980;DHT22;5030;51.532;6.766;2023-05-18T00:33:24;5.40;99.90
9980;DHT22;5030;51.532;6.766;2023-05-18T00:35:50;5.40;99.90
9980;DHT22;5030;51.532;6.766;2023-05-18T00:38:16;5.40;99.90
9980;DHT22;5030;51.532;6.766;2023-05-18T00:40:42;5.40;99.90
9980;DHT22;5030;51.532;6.766;2023-05-18T00:43:08;5.50;99.90
9980;DHT22;5030;51.532;6.766;2023-05-18T00:45:34;5.40;99.90
9980;DHT22;5030;51.532;6.766;2023-05-18T00:48:00;5.20;99.90
9980;DHT22;5030;51.532;6.766;2023-05-18T00:50:26;5.20;99.90
9980;DHT22;5030;51.532;6.766;2023-05-18T00:52:52;5.10;99.90
9980;DHT22;5030;51.532;6.766;2023-05-18T00:55:18;4.90;99.90
9980;DHT22;5030;51.532;6.766;2023-05-18T00:57:44;4.90;99.90
9980;DHT22;5030;51.532;6.766;2023-05-18T01:00:12;4.90;99.90
9980;DHT22;5030;51.532;6.766;2023-05-18T01:02:42;4.80;99.90
9980;DHT22;5030;51.532;6.766;2023-05-18T01:05:10;4.70;99.90
9980;DHT22;5030;51.532;6.766;2023-05-18T01:07:39;4.50;99.90
9980;DHT22;5030;51.532;6.766;2023-05-18T01:10:07;4.70;99.90
9980;DHT22;5030;51.532;6.766;2023-05-18T01:12:53;4.60;99.90
9980;DHT22;5030;51.532;6.766;2023-05-18T01:15:33;4.60;99.90
9980;DHT22;5030;51.532;6.766;2023-05-18T01:23:58;4.50;99.90
9980;DHT22;5030;51.532;6.766;2023-05-18T01:26:28;4.30;99.90
9980;DHT22;5030;51.532;6.766;2023-05-18T01:28:59;4.50;99.90
9980;DHT22;5030;51.532;6.766;2023-05-18T01:31:26;4.40;99.90
9980;DHT22;5030;51.532;6.766;2023-05-18T01:33:53;4.20;99.90
9980;DHT22;5030;51.532;6.766;2023-05-18T01:36:18;4.30;99.90
9980;DHT22;5030;51.532;6.766;2023-05-18T01:38:44;4.20;99.90
9980;DHT22;5030;51.532;6.766;2023-05-18T01:41:25;4.20;99.90
9980;DHT22;5030;51.532;6.766;2023-05-18T01:43:59;4.30;99.90
9980;DHT22;5030;51.532;6.766;2023-05-18T01:48:59;4.20;99.90
9980;DHT22;5030;51.532;6.766;2023-05-18T01:51:29;4.00;99.90
9980;DHT22;5030;51.532;6.766;2023-05-18T01:54:04;4.00;99.90
9980;DHT22;5030;51.532;6.766;2023-05-18T01:59:05;4.00;99.90
9980;DHT22;5030;51.532;6.766;2023-05-18T02:01:31;3.90;99.90
9980;DHT22;5030;51.532;6.766;2023-05-18T02:03:57;3.90;99.90
9980;DHT22;5030;51.532;6.766;2023-05-18T02:06:22;3.90;99.90
9980;DHT22;5030;51.532;6.766;2023-05-18T02:08:48;3.80;99.90
9980;DHT22;5030;51.532;6.766;2023-05-18T02:11:14;3.60;99.90
9980;DHT22;5030;51.532;6.766;2023-05-18T02:13:39;3.90;99.90
9980;DHT22;5030;51.532;6.766;2023-05-18T02:16:07;3.60;99.90
9980;DHT22;5030;51.532;6.766;2023-05-18T02:18:33;3.70;99.90
9980;DHT22;5030;51.532;6.766;2023-05-18T02:21:00;3.80;99.90
9980;DHT22;5030;51.532;6.766;2023-05-18T02:23:26;3.80;99.90
9980;DHT22;5030;51.532;6.766;2023-05-18T02:25:52;3.70;99.90
9980;DHT22;5030;51.532;6.766;2023-05-18T02:28:21;3.70;99.90
9980;DHT22;5030;51.532;6.766;2023-05-18T02:30:47;3.80;99.90
9980;DHT22;5030;51.532;6.766;2023-05-18T02:33:12;3.70;99.90
9980;DHT22;5030;51.532;6.766;2023-05-18T02:35:38;3.60;99.90
9980;DHT22;5030;51.532;6.766;2023-05-18T02:38:05;3.60;99.90
9980;DHT22;5030;51.532;6.766;2023-05-18T02:40:31;3.40;99.90
9980;DHT22;5030;51.532;6.766;2023-05-18T02:42:57;3.70;99.90
9980;DHT22;5030;51.532;6.766;2023-05-18T02:45:23;3.50;99.90
9980;DHT22;5030;51.532;6.766;2023-05-18T02:47:49;3.40;99.90
9980;DHT22;5030;51.532;6.766;2023-05-18T02:50:15;3.50;99.90
9980;DHT22;5030;51.532;6.766;2023-05-18T02:52:41;3.50;99.90
9980;DHT22;5030;51.532;6.766;2023-05-18T02:55:09;3.60;99.90
9980;DHT22;5030;51.532;6.766;2023-05-18T02:57:35;3.50;99.90
9980;DHT22;5030;51.532;6.766;2023-05-18T03:00:01;3.40;99.90
9980;DHT22;5030;51.532;6.766;2023-05-18T03:02:27;3.60;99.90
9980;DHT22;5030;51.532;6.766;2023-05-18T03:04:54;3.40;99.90
9980;DHT22;5030;51.532;6.766;2023-05-18T03:07:22;3.60;99.90
9980;DHT22;5030;51.532;6.766;2023-05-18T03:09:48;3.30;99.90
9980;DHT22;5030;51.532;6.766;2023-05-18T03:12:14;3.50;99.90
9980;DHT22;5030;51.532;6.766;2023-05-18T03:14:40;3.30;99.90
9980;DHT22;5030;51.532;6.766;2023-05-18T03:17:05;3.50;99.90
9980;DHT22;5030;51.532;6.766;2023-05-18T03:19:31;3.40;99.90
9980;DHT22;5030;51.532;6.766;2023-05-18T03:21:59;3.20;99.90
9980;DHT22;5030;51.532;6.766;2023-05-18T03:24:25;3.60;99.90
9980;DHT22;5030;51.532;6.766;2023-05-18T03:26:54;3.40;99.90
9980;DHT22;5030;51.532;6.766;2023-05-18T03:29:21;3.40;99.90
9980;DHT22;5030;51.532;6.766;2023-05-18T03:31:47;3.50;99.90
9980;DHT22;5030;51.532;6.766;2023-05-18T03:34:13;3.70;99.90
9980;DHT22;5030;51.532;6.766;2023-05-18T03:36:39;3.50;99.90
9980;DHT22;5030;51.532;6.766;2023-05-18T03:39:06;3.80;99.90
9980;DHT22;5030;51.532;6.766;2023-05-18T03:41:34;3.70;99.90
9980;DHT22;5030;51.532;6.766;2023-05-18T03:43:59;3.70;99.90
9980;DHT22;5030;51.532;6.766;2023-05-18T03:46:25;4.00;99.90
9980;DHT22;5030;51.532;6.766;2023-05-18T03:48:51;3.90;99.90
9980;DHT22;5030;51.532;6.766;2023-05-18T03:51:18;3.80;99.90
9980;DHT22;5030;51.532;6.766;2023-05-18T03:53:44;4.00;99.90
9980;DHT22;5030;51.532;6.766;2023-05-18T03:56:10;4.00;99.90
9980;DHT22;5030;51.532;6.766;2023-05-18T03:58:37;4.10;99.90
9980;DHT22;5030;51.532;6.766;2023-05-18T04:01:03;3.90;99.90
9980;DHT22;5030;51.532;6.766;2023-05-18T04:03:29;4.20;99.90
9980;DHT22;5030;51.532;6.766;2023-05-18T04:05:55;3.90;99.90
9980;DHT22;5030;51.532;6.766;2023-05-18T04:08:21;4.00;99.90
9980;DHT22;5030;51.532;6.766;2023-05-18T04:10:50;4.30;99.90
9980;DHT22;5030;51.532;6.766;2023-05-18T04:13:16;4.50;99.90
9980;DHT22;5030;51.532;6.766;2023-05-18T04:15:42;4.50;99.90
9980;DHT22;5030;51.532;6.766;2023-05-18T04:18:08;4.60;99.90
9980;DHT22;5030;51.532;6.766;2023-05-18T04:20:35;4.60;99.90
9980;DHT22;5030;51.532;6.766;2023-05-18T04:23:02;4.80;99.90
9980;DHT22;5030;51.532;6.766;2023-05-18T04:25:30;4.70;99.90
9980;DHT22;5030;51.532;6.766;2023-05-18T04:27:55;4.90;99.90
9980;DHT22;5030;51.532;6.766;2023-05-18T04:30:22;4.90;99.90
9980;DHT22;5030;51.532;6.766;2023-05-18T04:32:48;5.10;99.90
9980;DHT22;5030;51.532;6.766;2023-05-18T04:35:15;5.00;99.90
9980;DHT22;5030;51.532;6.766;2023-05-18T04:37:40;5.10;99.90
9980;DHT22;5030;51.532;6.766;2023-05-18T04:40:08;5.20;99.90
9980;DHT22;5030;51.532;6.766;2023-05-18T04:42:41;5.20;99.90
9980;DHT22;5030;51.532;6.766;2023-05-18T04:45:11;5.30;99.90
9980;DHT22;5030;51.532;6.766;2023-05-18T04:47:37;5.30;99.90
9980;DHT22;5030;51.532;6.766;2023-05-18T04:50:03;5.50;99.90
9980;DHT22;5030;51.532;6.766;2023-05-18T04:52:30;5.50;99.90
9980;DHT22;5030;51.532;6.766;2023-05-18T04:54:55;5.50;99.90
9980;DHT22;5030;51.532;6.766;2023-05-18T04:57:21;5.60;99.90
9980;DHT22;5030;51.532;6.766;2023-05-18T04:59:47;5.80;99.90
9980;DHT22;5030;51.532;6.766;2023-05-18T05:02:12;5.90;99.90
9980;DHT22;5030;51.532;6.766;2023-05-18T05:04:39;5.80;99.90
9980;DHT22;5030;51.532;6.766;2023-05-18T05:07:06;5.90;99.90
9980;DHT22;5030;51.532;6.766;2023-05-18T05:09:31;6.10;99.90
9980;DHT22;5030;51.532;6.766;2023-05-18T05:11:57;6.00;99.90
9980;DHT22;5030;51.532;6.766;2023-05-18T05:14:23;6.10;99.90
9980;DHT22;5030;51.532;6.766;2023-05-18T05:16:48;6.20;99.90
9980;DHT22;5030;51.532;6.766;2023-05-18T05:19:14;6.40;99.90
9980;DHT22;5030;51.532;6.766;2023-05-18T05:21:39;6.30;99.90
9980;DHT22;5030;51.532;6.766;2023-05-18T05:24:05;6.30;99.90
9980;DHT22;5030;51.532;6.766;2023-05-18T05:26:32;6.40;99.90
9980;DHT22;5030;51.532;6.766;2023-05-18T05:28:58;6.40;99.90
9980;DHT22;5030;51.532;6.766;2023-05-18T05:31:24;6.50;99.90
9980;DHT22;5030;51.532;6.766;2023-05-18T05:33:49;6.60;99.90
9980;DHT22;5030;51.532;6.766;2023-05-18T05:36:15;6.70;99.90
9980;DHT22;5030;51.532;6.766;2023-05-18T05:38:40;6.80;99.90
9980;DHT22;5030;51.532;6.766;2023-05-18T05:41:06;6.80;99.90
9980;DHT22;5030;51.532;6.766;2023-05-18T05:43:32;6.90;99.90
9980;DHT22;5030;51.532;6.766;2023-05-18T05:45:59;6.90;99.90
9980;DHT22;5030;51.532;6.766;2023-05-18T05:48:25;7.10;99.90
9980;DHT22;5030;51.532;6.766;2023-05-18T05:50:50;7.00;99.90
9980;DHT22;5030;51.532;6.766;2023-05-18T05:53:16;7.00;99.90
9980;DHT22;5030;51.532;6.766;2023-05-18T05:55:43;7.20;99.90
9980;DHT22;5030;51.532;6.766;2023-05-18T05:58:09;7.40;99.90
9980;DHT22;5030;51.532;6.766;2023-05-18T06:00:35;7.40;99.90
9980;DHT22;5030;51.532;6.766;2023-05-18T06:03:01;7.60;99.90
9980;DHT22;5030;51.532;6.766;2023-05-18T06:05:26;7.60;99.90
9980;DHT22;5030;51.532;6.766;2023-05-18T06:07:52;7.60;99.90
9980;DHT22;5030;51.532;6.766;2023-05-18T06:10:18;7.70;99.90
9980;DHT22;5030;51.532;6.766;2023-05-18T06:12:43;7.70;99.90
9980;DHT22;5030;51.532;6.766;2023-05-18T06:15:09;7.70;99.90
9980;DHT22;5030;51.532;6.766;2023-05-18T06:17:35;7.80;99.90
9980;DHT22;5030;51.532;6.766;2023-05-18T06:20:02;8.00;99.90
9980;DHT22;5030;51.532;6.766;2023-05-18T06:22:31;8.00;99.90
9980;DHT22;5030;51.532;6.766;2023-05-18T06:24:56;8.20;99.90
9980;DHT22;5030;51.532;6.766;2023-05-18T06:27:22;8.20;99.90
9980;DHT22;5030;51.532;6.766;2023-05-18T06:29:48;8.20;99.90
9980;DHT22;5030;51.532;6.766;2023-05-18T06:32:17;8.30;99.90
9980;DHT22;5030;51.532;6.766;2023-05-18T06:34:43;8.40;99.90
9980;DHT22;5030;51.532;6.766;2023-05-18T06:37:10;8.50;99.90
9980;DHT22;5030;51.532;6.766;2023-05-18T06:39:36;8.70;99.90
9980;DHT22;5030;51.532;6.766;2023-05-18T06:42:02;8.70;99.90
9980;DHT22;5030;51.532;6.766;2023-05-18T06:44:27;8.80;99.90
9980;DHT22;5030;51.532;6.766;2023-05-18T06:46:53;8.80;99.90
9980;DHT22;5030;51.532;6.766;2023-05-18T06:49:18;8.80;99.90
9980;DHT22;5030;51.532;6.766;2023-05-18T06:51:45;8.80;99.90
9980;DHT22;5030;51.532;6.766;2023-05-18T06:54:12;8.80;99.90
9980;DHT22;5030;51.532;6.766;2023-05-18T06:56:38;8.90;99.90
9980;DHT22;5030;51.532;6.766;2023-05-18T06:59:04;9.10;99.90
9980;DHT22;5030;51.532;6.766;2023-05-18T07:01:29;9.10;99.90
9980;DHT22;5030;51.532;6.766;2023-05-18T07:03:55;9.10;99.90
9980;DHT22;5030;51.532;6.766;2023-05-18T07:06:21;9.20;99.90
9980;DHT22;5030;51.532;6.766;2023-05-18T07:08:46;9.20;99.90
9980;DHT22;5030;51.532;6.766;2023-05-18T07:11:13;9.30;99.90
9980;DHT22;5030;51.532;6.766;2023-05-18T07:13:39;9.30;99.90
9980;DHT22;5030;51.532;6.766;2023-05-18T07:16:05;9.50;99.90
9980;DHT22;5030;51.532;6.766;2023-05-18T07:18:31;9.60;99.90
9980;DHT22;5030;51.532;6.766;2023-05-18T07:20:58;9.70;99.90
9980;DHT22;5030;51.532;6.766;2023-05-18T07:23:23;9.70;99.90
9980;DHT22;5030;51.532;6.766;2023-05-18T07:25:49;9.80;99.90
9980;DHT22;5030;51.532;6.766;2023-05-18T07:28:15;9.80;99.90
9980;DHT22;5030;51.532;6.766;2023-05-18T07:30:41;9.70;98.90
9980;DHT22;5030;51.532;6.766;2023-05-18T07:33:07;9.90;99.90
9980;DHT22;5030;51.532;6.766;2023-05-18T07:35:32;9.90;99.90
9980;DHT22;5030;51.532;6.766;2023-05-18T07:37:58;9.90;98.60
9980;DHT22;5030;51.532;6.766;2023-05-18T07:40:23;10.00;99.90
9980;DHT22;5030;51.532;6.766;2023-05-18T07:42:49;10.00;99.00
9980;DHT22;5030;51.532;6.766;2023-05-18T07:45:15;10.10;96.90
9980;DHT22;5030;51.532;6.766;2023-05-18T07:47:40;10.20;99.70
9980;DHT22;5030;51.532;6.766;2023-05-18T07:50:06;10.30;99.90
9980;DHT22;5030;51.532;6.766;2023-05-18T07:52:32;10.40;96.90
9980;DHT22;5030;51.532;6.766;2023-05-18T07:54:58;10.50;91.50
9980;DHT22;5030;51.532;6.766;2023-05-18T07:57:24;10.70;92.50
9980;DHT22;5030;51.532;6.766;2023-05-18T07:59:50;10.60;87.30
9980;DHT22;5030;51.532;6.766;2023-05-18T08:02:16;10.70;94.70
9980;DHT22;5030;51.532;6.766;2023-05-18T08:04:44;10.70;85.20
9980;DHT22;5030;51.532;6.766;2023-05-18T08:07:10;10.80;80.20
9980;DHT22;5030;51.532;6.766;2023-05-18T08:09:37;10.80;89.40
9980;DHT22;5030;51.532;6.766;2023-05-18T08:12:04;10.90;87.50
9980;DHT22;5030;51.532;6.766;2023-05-18T08:14:29;11.00;86.10
9980;DHT22;5030;51.532;6.766;2023-05-18T08:16:55;11.00;90.20
9980;DHT22;5030;51.532;6.766;2023-05-18T08:19:21;11.10;78.10
9980;DHT22;5030;51.532;6.766;2023-05-18T08:21:46;11.20;83.10
9980;DHT22;5030;51.532;6.766;2023-05-18T08:24:12;11.20;65.30
9980;DHT22;5030;51.532;6.766;2023-05-18T08:26:38;11.40;79.40
9980;DHT22;5030;51.532;6.766;2023-05-18T08:29:04;11.50;80.80
9980;DHT22;5030;51.532;6.766;2023-05-18T08:31:40;11.70;56.50
9980;DHT22;5030;51.532;6.766;2023-05-18T08:34:07;11.80;59.10
9980;DHT22;5030;51.532;6.766;2023-05-18T08:36:35;12.00;49.80
9980;DHT22;5030;51.532;6.766;2023-05-18T08:39:01;12.20;49.40
9980;DHT22;5030;51.532;6.766;2023-05-18T08:41:44;12.10;46.20
9980;DHT22;5030;51.532;6.766;2023-05-18T08:44:20;12.20;40.90
9980;DHT22;5030;51.532;6.766;2023-05-18T08:46:51;12.20;39.30
9980;DHT22;5030;51.532;6.766;2023-05-18T08:49:18;12.20;30.70
9980;DHT22;5030;51.532;6.766;2023-05-18T08:51:55;12.30;35.10
9980;DHT22;5030;51.532;6.766;2023-05-18T08:54:22;12.30;44.70
9980;DHT22;5030;51.532;6.766;2023-05-18T08:56:49;12.40;30.00
9980;DHT22;5030;51.532;6.766;2023-05-18T08:59:25;12.70;42.90
9980;DHT22;5030;51.532;6.766;2023-05-18T09:01:51;12.70;30.10
9980;DHT22;5030;51.532;6.766;2023-05-18T09:04:19;12.60;19.50
9980;DHT22;5030;51.532;6.766;2023-05-18T09:06:47;12.60;29.10
9980;DHT22;5030;51.532;6.766;2023-05-18T09:09:13;12.70;30.70
9980;DHT22;5030;51.532;6.766;2023-05-18T09:11:40;12.80;31.10
9980;DHT22;5030;51.532;6.766;2023-05-18T09:14:06;12.90;26.70
9980;DHT22;5030;51.532;6.766;2023-05-18T09:16:32;13.20;27.10
9980;DHT22;5030;51.532;6.766;2023-05-18T09:19:00;13.50;30.80
9980;DHT22;5030;51.532;6.766;2023-05-18T09:21:26;13.70;21.40
9980;DHT22;5030;51.532;6.766;2023-05-18T09:23:52;13.60;17.00
9980;DHT22;5030;51.532;6.766;2023-05-18T09:26:18;13.80;15.70
9980;DHT22;5030;51.532;6.766;2023-05-18T09:28:44;14.00;16.70
9980;DHT22;5030;51.532;6.766;2023-05-18T09:31:16;13.80;1.80
9980;DHT22;5030;51.532;6.766;2023-05-18T09:33:43;14.00;12.40
9980;DHT22;5030;51.532;6.766;2023-05-18T09:36:10;13.90;7.50
9980;DHT22;5030;51.532;6.766;2023-05-18T09:38:41;14.20;16.90
9980;DHT22;5030;51.532;6.766;2023-05-18T09:41:15;14.60;3.60
9980;DHT22;5030;51.532;6.766;2023-05-18T09:43:42;14.80;5.50
9980;DHT22;5030;51.532;6.766;2023-05-18T09:46:09;15.10;1.00
9980;DHT22;5030;51.532;6.766;2023-05-18T09:48:36;15.00;1.00
9980;DHT22;5030;51.532;6.766;2023-05-18T09:51:06;14.70;1.00
9980;DHT22;5030;51.532;6.766;2023-05-18T09:53:34;14.90;5.30
9980;DHT22;5030;51.532;6.766;2023-05-18T09:56:05;15.20;1.00
9980;DHT22;5030;51.532;6.766;2023-05-18T09:58:34;15.20;1.00
9980;DHT22;5030;51.532;6.766;2023-05-18T10:01:01;15.20;1.00
9980;DHT22;5030;51.532;6.766;2023-05-18T10:03:31;15.50;1.00
9980;DHT22;5030;51.532;6.766;2023-05-18T10:06:02;15.90;1.00
9980;DHT22;5030;51.532;6.766;2023-05-18T10:08:28;15.90;1.00
9980;DHT22;5030;51.532;6.766;2023-05-18T10:10:54;15.60;1.00
9980;DHT22;5030;51.532;6.766;2023-05-18T10:13:20;15.40;1.00
9980;DHT22;5030;51.532;6.766;2023-05-18T10:15:51;15.60;1.00
9980;DHT22;5030;51.532;6.766;2023-05-18T10:18:23;15.80;1.00
9980;DHT22;5030;51.532;6.766;2023-05-18T10:20:51;16.10;1.00
9980;DHT22;5030;51.532;6.766;2023-05-18T10:23:18;16.20;1.00
9980;DHT22;5030;51.532;6.766;2023-05-18T10:25:46;16.00;1.00
9980;DHT22;5030;51.532;6.766;2023-05-18T10:28:21;16.10;1.00
9980;DHT22;5030;51.532;6.766;2023-05-18T10:30:51;15.90;1.00
9980;DHT22;5030;51.532;6.766;2023-05-18T10:33:19;15.20;1.00
9980;DHT22;5030;51.532;6.766;2023-05-18T10:35:47;14.80;1.00
9980;DHT22;5030;51.532;6.766;2023-05-18T10:38:18;14.70;1.00
9980;DHT22;5030;51.532;6.766;2023-05-18T10:40:50;15.10;1.00
9980;DHT22;5030;51.532;6.766;2023-05-18T10:43:19;15.80;1.00
9980;DHT22;5030;51.532;6.766;2023-05-18T10:45:50;16.10;1.00
9980;DHT22;5030;51.532;6.766;2023-05-18T10:48:18;16.30;1.00
9980;DHT22;5030;51.532;6.766;2023-05-18T10:50:47;16.50;1.00
9980;DHT22;5030;51.532;6.766;2023-05-18T10:53:19;16.80;1.00
9980;DHT22;5030;51.532;6.766;2023-05-18T10:55:49;16.90;1.00
9980;DHT22;5030;51.532;6.766;2023-05-18T10:58:17;17.00;1.00
9980;DHT22;5030;51.532;6.766;2023-05-18T11:00:51;17.00;1.00
9980;DHT22;5030;51.532;6.766;2023-05-18T11:03:18;16.70;1.00
9980;DHT22;5030;51.532;6.766;2023-05-18T11:08:34;17.50;1.00
9980;DHT22;5030;51.532;6.766;2023-05-18T11:11:06;17.40;1.00
9980;DHT22;5030;51.532;6.766;2023-05-18T11:13:36;17.70;1.00
9980;DHT22;5030;51.532;6.766;2023-05-18T11:16:04;17.70;1.00
9980;DHT22;5030;51.532;6.766;2023-05-18T11:18:47;17.60;1.00
9980;DHT22;5030;51.532;6.766;2023-05-18T11:24:23;18.30;1.00
9980;DHT22;5030;51.532;6.766;2023-05-18T11:27:01;18.40;1.00
9980;DHT22;5030;51.532;6.766;2023-05-18T11:29:36;18.30;1.00
9980;DHT22;5030;51.532;6.766;2023-05-18T11:32:02;17.70;1.00
9980;DHT22;5030;51.532;6.766;2023-05-18T11:34:44;18.20;1.00
9980;DHT22;5030;51.532;6.766;2023-05-18T11:37:12;18.60;1.00
9980;DHT22;5030;51.532;6.766;2023-05-18T11:39:38;18.20;1.00
9980;DHT22;5030;51.532;6.766;2023-05-18T11:42:11;18.30;1.00
9980;DHT22;5030;51.532;6.766;2023-05-18T11:44:38;18.20;1.00
9980;DHT22;5030;51.532;6.766;2023-05-18T11:47:08;18.10;1.00
9980;DHT22;5030;51.532;6.766;2023-05-18T11:49:46;18.40;1.00
9980;DHT22;5030;51.532;6.766;2023-05-18T11:52:20;19.00;1.00
9980;DHT22;5030;51.532;6.766;2023-05-18T11:54:57;18.70;1.00
9980;DHT22;5030;51.532;6.766;2023-05-18T12:00:01;18.20;1.00
9980;DHT22;5030;51.532;6.766;2023-05-18T12:02:32;18.80;1.00
9980;DHT22;5030;51.532;6.766;2023-05-18T12:04:59;19.00;1.00
9980;DHT22;5030;51.532;6.766;2023-05-18T12:07:27;18.90;1.00
9980;DHT22;5030;51.532;6.766;2023-05-18T12:09:58;19.20;1.00
9980;DHT22;5030;51.532;6.766;2023-05-18T12:12:24;19.50;1.00
9980;DHT22;5030;51.532;6.766;2023-05-18T12:14:54;19.10;1.00
9980;DHT22;5030;51.532;6.766;2023-05-18T12:17:21;19.20;1.00
9980;DHT22;5030;51.532;6.766;2023-05-18T12:19:48;19.90;1.00
9980;DHT22;5030;51.532;6.766;2023-05-18T12:22:15;19.20;1.00
9980;DHT22;5030;51.532;6.766;2023-05-18T12:24:42;19.70;1.00
9980;DHT22;5030;51.532;6.766;2023-05-18T12:27:09;20.10;1.00
9980;DHT22;5030;51.532;6.766;2023-05-18T12:29:41;19.80;1.00
9980;DHT22;5030;51.532;6.766;2023-05-18T12:32:09;20.40;1.00
9980;DHT22;5030;51.532;6.766;2023-05-18T12:34:35;20.30;1.00
9980;DHT22;5030;51.532;6.766;2023-05-18T12:37:01;20.30;1.00
9980;DHT22;5030;51.532;6.766;2023-05-18T12:39:30;19.80;1.00
9980;DHT22;5030;51.532;6.766;2023-05-18T12:42:09;19.70;1.00
9980;DHT22;5030;51.532;6.766;2023-05-18T12:44:36;20.10;1.00
9980;DHT22;5030;51.532;6.766;2023-05-18T12:47:03;20.30;1.00
9980;DHT22;5030;51.532;6.766;2023-05-18T12:49:34;19.80;1.00
9980;DHT22;5030;51.532;6.766;2023-05-18T12:52:07;20.40;1.00
9980;DHT22;5030;51.532;6.766;2023-05-18T12:54:33;20.90;1.00
9980;DHT22;5030;51.532;6.766;2023-05-18T12:57:04;20.30;1.00
9980;DHT22;5030;51.532;6.766;2023-05-18T12:59:31;20.40;1.00
9980;DHT22;5030;51.532;6.766;2023-05-18T13:01:57;20.00;1.00
9980;DHT22;5030;51.532;6.766;2023-05-18T13:04:32;19.60;1.00
9980;DHT22;5030;51.532;6.766;2023-05-18T13:06:58;19.40;1.00
9980;DHT22;5030;51.532;6.766;2023-05-18T13:09:24;19.20;1.00
9980;DHT22;5030;51.532;6.766;2023-05-18T13:11:50;19.20;1.00
9980;DHT22;5030;51.532;6.766;2023-05-18T13:14:20;19.50;1.00
9980;DHT22;5030;51.532;6.766;2023-05-18T13:16:49;19.50;1.00
9980;DHT22;5030;51.532;6.766;2023-05-18T13:19:16;19.80;1.00
9980;DHT22;5030;51.532;6.766;2023-05-18T13:21:47;20.30;1.00
9980;DHT22;5030;51.532;6.766;2023-05-18T13:24:19;20.30;1.00
9980;DHT22;5030;51.532;6.766;2023-05-18T13:26:45;20.20;1.00
9980;DHT22;5030;51.532;6.766;2023-05-18T13:29:11;20.60;1.00
9980;DHT22;5030;51.532;6.766;2023-05-18T13:31:37;20.50;1.00
9980;DHT22;5030;51.532;6.766;2023-05-18T13:34:03;21.00;1.00
9980;DHT22;5030;51.532;6.766;2023-05-18T13:36:28;20.60;1.00
9980;DHT22;5030;51.532;6.766;2023-05-18T13:38:54;20.30;1.00
9980;DHT22;5030;51.532;6.766;2023-05-18T13:41:22;20.40;1.00
9980;DHT22;5030;51.532;6.766;2023-05-18T13:43:47;20.20;1.00
9980;DHT22;5030;51.532;6.766;2023-05-18T13:46:13;20.60;1.00
9980;DHT22;5030;51.532;6.766;2023-05-18T13:48:39;21.00;1.00
9980;DHT22;5030;51.532;6.766;2023-05-18T13:51:04;20.20;1.00
9980;DHT22;5030;51.532;6.766;2023-05-18T13:53:30;20.70;1.00
9980;DHT22;5030;51.532;6.766;2023-05-18T13:55:56;21.10;1.00
9980;DHT22;5030;51.532;6.766;2023-05-18T13:58:22;21.10;1.00
9980;DHT22;5030;51.532;6.766;2023-05-18T14:00:48;21.40;1.00
9980;DHT22;5030;51.532;6.766;2023-05-18T14:03:13;21.30;1.00
9980;DHT22;5030;51.532;6.766;2023-05-18T14:05:39;21.20;1.00
9980;DHT22;5030;51.532;6.766;2023-05-18T14:08:05;21.50;1.00
9980;DHT22;5030;51.532;6.766;2023-05-18T14:10:30;20.80;1.00
9980;DHT22;5030;51.532;6.766;2023-05-18T14:12:56;20.60;1.00
9980;DHT22;5030;51.532;6.766;2023-05-18T14:15:22;21.00;1.00
9980;DHT22;5030;51.532;6.766;2023-05-18T14:17:48;21.60;1.00
9980;DHT22;5030;51.532;6.766;2023-05-18T14:20:13;21.40;1.00
9980;DHT22;5030;51.532;6.766;2023-05-18T14:22:39;21.30;1.00
9980;DHT22;5030;51.532;6.766;2023-05-18T14:25:05;21.40;1.00
9980;DHT22;5030;51.532;6.766;2023-05-18T14:27:31;21.70;1.00
9980;DHT22;5030;51.532;6.766;2023-05-18T14:29:58;21.20;1.00
9980;DHT22;5030;51.532;6.766;2023-05-18T14:32:23;20.60;1.00
9980;DHT22;5030;51.532;6.766;2023-05-18T14:34:49;20.30;1.00
9980;DHT22;5030;51.532;6.766;2023-05-18T14:37:17;20.50;1.00
9980;DHT22;5030;51.532;6.766;2023-05-18T14:39:43;20.70;1.00
9980;DHT22;5030;51.532;6.766;2023-05-18T14:42:08;20.20;1.00
9980;DHT22;5030;51.532;6.766;2023-05-18T14:44:34;20.50;1.00
9980;DHT22;5030;51.532;6.766;2023-05-18T14:46:59;20.20;1.00
9980;DHT22;5030;51.532;6.766;2023-05-18T14:49:25;20.40;1.00
9980;DHT22;5030;51.532;6.766;2023-05-18T14:51:51;20.80;1.00
9980;DHT22;5030;51.532;6.766;2023-05-18T14:54:17;20.90;1.00
9980;DHT22;5030;51.532;6.766;2023-05-18T14:56:43;20.90;1.00
9980;DHT22;5030;51.532;6.766;2023-05-18T14:59:09;21.40;1.00
9980;DHT22;5030;51.532;6.766;2023-05-18T15:01:35;21.30;1.00
9980;DHT22;5030;51.532;6.766;2023-05-18T15:04:00;21.30;1.00
9980;DHT22;5030;51.532;6.766;2023-05-18T15:06:27;20.90;1.00
9980;DHT22;5030;51.532;6.766;2023-05-18T15:08:52;21.30;1.00
9980;DHT22;5030;51.532;6.766;2023-05-18T15:11:18;21.40;1.00
9980;DHT22;5030;51.532;6.766;2023-05-18T15:13:45;20.90;1.00
9980;DHT22;5030;51.532;6.766;2023-05-18T15:16:11;20.80;1.00
9980;DHT22;5030;51.532;6.766;2023-05-18T15:18:39;20.70;1.00
9980;DHT22;5030;51.532;6.766;2023-05-18T15:21:04;20.40;1.00
9980;DHT22;5030;51.532;6.766;2023-05-18T15:23:30;20.50;1.00
9980;DHT22;5030;51.532;6.766;2023-05-18T15:25:56;21.20;1.00
9980;DHT22;5030;51.532;6.766;2023-05-18T15:28:22;21.30;1.00
9980;DHT22;5030;51.532;6.766;2023-05-18T15:30:47;20.90;1.00
9980;DHT22;5030;51.532;6.766;2023-05-18T15:33:13;20.70;1.00
9980;DHT22;5030;51.532;6.766;2023-05-18T15:35:39;20.80;1.00
9980;DHT22;5030;51.532;6.766;2023-05-18T15:38:04;21.00;1.00
9980;DHT22;5030;51.532;6.766;2023-05-18T15:40:30;20.60;1.00
9980;DHT22;5030;51.532;6.766;2023-05-18T15:42:56;20.40;1.00
9980;DHT22;5030;51.532;6.766;2023-05-18T15:45:21;20.20;1.00
9980;DHT22;5030;51.532;6.766;2023-05-18T15:47:47;19.90;1.00
9980;DHT22;5030;51.532;6.766;2023-05-18T15:50:14;19.90;1.00
9980;DHT22;5030;51.532;6.766;2023-05-18T15:52:40;19.60;1.00
9980;DHT22;5030;51.532;6.766;2023-05-18T15:55:08;19.50;1.00
9980;DHT22;5030;51.532;6.766;2023-05-18T15:57:33;19.30;1.00
9980;DHT22;5030;51.532;6.766;2023-05-18T16:00:01;19.30;1.00
9980;DHT22;5030;51.532;6.766;2023-05-18T16:02:26;19.80;1.00
9980;DHT22;5030;51.532;6.766;2023-05-18T16:04:52;19.60;1.00
9980;DHT22;5030;51.532;6.766;2023-05-18T16:07:17;19.50;1.00
9980;DHT22;5030;51.532;6.766;2023-05-18T16:09:43;19.70;1.00
9980;DHT22;5030;51.532;6.766;2023-05-18T16:12:10;19.60;1.00
9980;DHT22;5030;51.532;6.766;2023-05-18T16:14:35;19.50;1.00
9980;DHT22;5030;51.532;6.766;2023-05-18T16:17:01;19.50;1.00
9980;DHT22;5030;51.532;6.766;2023-05-18T16:19:26;19.70;1.00
9980;DHT22;5030;51.532;6.766;2023-05-18T16:21:52;19.70;1.00
9980;DHT22;5030;51.532;6.766;2023-05-18T16:24:18;19.60;1.00
9980;DHT22;5030;51.532;6.766;2023-05-18T16:26:43;20.00;1.00
9980;DHT22;5030;51.532;6.766;2023-05-18T16:29:09;20.40;1.00
9980;DHT22;5030;51.532;6.766;2023-05-18T16:31:35;20.10;1.00
9980;DHT22;5030;51.532;6.766;2023-05-18T16:34:01;19.90;1.00
9980;DHT22;5030;51.532;6.766;2023-05-18T16:36:28;20.20;1.00